Time;durP1;ratioP1;P1;durP2;ratioP2;P2;SDS_P1;SDS_P2;PMS_P1;PMS_P2;Temp;Humidity;BMP_temperature;BMP_pressure;BME280_temperature;BME280_humidity;BME280_pressure;Samples;Min_cycle;Max_cycle;Signal;HPM_P1;HPM_P2
2021/09/17 00:01:25;;;;;;;9.30;7.10;;;;;;;20.53;66.42;101272.81;5052315;27;102236;-82
2021/09/17 00:03:52;;;;;;;8.85;6.63;;;;;;;20.53;66.04;101270.06;5043361;27;104805;-82
2021/09/17 00:06:18;;;;;;;10.07;7.25;;;;;;;20.52;66.36;101260.94;5046755;27;102335;-83
2021/09/17 00:08:45;;;;;;;10.32;6.35;;;;;;;20.52;66.42;101260.09;5049575;27;103251;-83
2021/09/17 00:11:11;;;;;;;10.38;7.30;;;;;;;20.52;65.95;101272.00;5044754;27;102518;-82
2021/09/17 00:13:41;;;;;;;11.05;7.70;;;;;;;20.52;66.32;101265.63;5050847;27;102682;-80
2021/09/17 00:16:11;;;;;;;8.30;6.80;;;;;;;20.53;66.32;101272.81;5048690;27;102267;-88
2021/09/17 00:18:38;;;;;;;10.40;6.88;;;;;;;20.52;66.42;101260.94;5042933;27;102573;-88
2021/09/17 00:21:05;;;;;;;10.13;7.15;;;;;;;20.53;66.56;101256.22;5054414;27;101976;-88
2021/09/17 00:23:35;;;;;;;8.93;6.75;;;;;;;20.51;66.48;101253.75;5044420;27;104517;-87
2021/09/17 00:26:02;;;;;;;8.10;6.22;;;;;;;20.51;66.34;101252.97;5035905;27;102693;-88
2021/09/17 00:28:29;;;;;;;8.25;6.35;;;;;;;20.51;66.49;101252.97;5048465;27;102579;-88
2021/09/17 00:30:56;;;;;;;8.80;6.82;;;;;;;20.51;66.41;101252.97;5050362;27;102716;-88
2021/09/17 00:33:25;;;;;;;9.73;6.68;;;;;;;20.51;66.28;101256.53;5048295;27;103910;-88
2021/09/17 00:35:52;;;;;;;;;;;;;;;20.52;66.56;101246.28;5045318;27;102448;-83
2021/09/17 00:38:18;;;;;;;8.60;6.22;;;;;;;20.52;66.45;101246.28;5045582;27;102215;-83
2021/09/17 00:40:45;;;;;;;10.07;7.28;;;;;;;20.51;66.35;101241.91;5037094;27;102358;-82
2021/09/17 00:43:12;;;;;;;8.73;6.88;;;;;;;20.52;66.47;101243.50;5031144;27;104154;-82
2021/09/17 00:45:42;;;;;;;9.00;6.60;;;;;;;20.51;66.44;101239.94;5032712;27;102158;-82
2021/09/17 00:48:08;;;;;;;8.70;5.93;;;;;;;20.51;66.52;101230.84;5030766;27;102049;-82
2021/09/17 00:50:37;;;;;;;7.63;5.75;;;;;;;20.52;66.52;101238.00;5035956;27;102440;-83
2021/09/17 00:53:04;;;;;;;8.45;5.93;;;;;;;20.51;66.42;101225.31;5038837;27;102622;-88
2021/09/17 00:55:32;;;;;;;8.85;6.32;;;;;;;20.50;66.48;101218.16;5037211;27;102702;-88
2021/09/17 00:58:00;;;;;;;8.35;6.00;;;;;;;20.50;66.40;101224.50;5046369;27;102729;-88
2021/09/17 01:00:27;;;;;;;8.70;6.45;;;;;;;20.50;66.52;101221.72;5050864;27;102496;-88
2021/09/17 01:02:53;;;;;;;23.83;6.35;;;;;;;20.51;66.52;101214.25;5042395;27;103878;-87
2021/09/17 01:05:20;;;;;;;20.92;6.57;;;;;;;20.50;66.42;101212.63;5048580;27;102503;-88
2021/09/17 01:07:49;;;;;;;8.88;5.90;;;;;;;20.50;66.47;101209.88;5031125;27;102528;-88
2021/09/17 01:10:15;;;;;;;9.93;6.73;;;;;;;20.51;66.67;101208.72;5039801;27;102679;-88
2021/09/17 01:12:43;;;;;;;6.88;5.78;;;;;;;20.50;66.35;101207.09;5045301;27;102791;-82
2021/09/17 01:15:12;;;;;;;8.02;5.53;;;;;;;20.50;66.35;101196.03;5045412;27;102562;-87
2021/09/17 01:17:40;;;;;;;7.57;5.72;;;;;;;20.50;66.46;101194.09;5047899;27;102577;-87
2021/09/17 01:20:12;;;;;;;11.48;5.55;;;;;;;20.49;66.42;101188.88;5048784;27;102412;-87
2021/09/17 01:22:42;;;;;;;7.55;5.78;;;;;;;20.49;66.47;101199.94;5036063;27;102983;-88
2021/09/17 01:25:16;;;;;;;7.70;5.13;;;;;;;20.50;66.58;101190.50;5042230;27;102597;-87
2021/09/17 01:27:50;;;;;;;8.18;5.60;;;;;;;20.49;66.49;101184.16;5035142;27;102508;-88
2021/09/17 01:30:19;;;;;;;6.47;5.68;;;;;;;20.50;66.58;101190.50;5039733;27;102437;-87
2021/09/17 01:32:46;;;;;;;8.68;5.50;;;;;;;20.49;66.46;101180.56;5037950;27;104089;-87
2021/09/17 01:35:15;;;;;;;6.18;5.22;;;;;;;20.49;66.36;101177.81;5034967;27;102212;-82
2021/09/17 01:37:44;;;;;;;7.80;5.95;;;;;;;20.48;66.54;101187.22;5049948;27;102664;-83
2021/09/17 01:40:13;;;;;;;8.35;6.07;;;;;;;20.49;66.61;101184.16;5039350;27;102837;-82
2021/09/17 01:42:39;;;;;;;;;;;;;;;20.49;66.60;101186.09;5045456;27;103914;-83
2021/09/17 01:45:09;;;;;;;7.45;5.82;;;;;;;20.49;66.28;101183.34;5050369;27;102534;-82
2021/09/17 01:47:35;;;;;;;6.13;5.47;;;;;;;20.49;66.52;101177.81;5035793;27;102372;-83
2021/09/17 01:50:02;;;;;;;7.30;5.25;;;;;;;20.49;66.52;101177.81;5038805;27;102211;-82
2021/09/17 01:52:29;;;;;;;8.05;5.72;;;;;;;20.49;66.44;101172.28;5047431;27;103802;-83
2021/09/17 01:54:57;;;;;;;6.82;5.07;;;;;;;20.48;66.70;101170.63;5050477;27;102365;-82
2021/09/17 01:57:24;;;;;;;7.35;5.60;;;;;;;20.48;66.54;101165.91;5037196;27;102236;-81
2021/09/17 01:59:50;;;;;;;8.85;5.38;;;;;;;20.48;66.47;101171.44;5035626;27;102035;-82
2021/09/17 02:02:17;;;;;;;7.05;5.28;;;;;;;20.47;66.54;101169.00;5038209;27;102721;-82
2021/09/17 02:04:44;;;;;;;7.10;5.20;;;;;;;20.48;66.09;101165.09;5034361;27;102480;-83
2021/09/17 02:07:20;;;;;;;6.85;5.40;;;;;;;20.47;66.50;101169.00;5032987;27;102461;-82
2021/09/17 02:09:46;;;;;;;6.40;5.03;;;;;;;20.47;66.42;101158.75;5036320;27;102324;-87
2021/09/17 02:12:15;;;;;;;6.22;4.97;;;;;;;20.48;66.61;101156.81;5043966;27;103713;-82
2021/09/17 02:14:44;;;;;;;6.85;5.13;;;;;;;20.46;66.51;101151.63;5049663;27;102179;-83
2021/09/17 02:17:11;;;;;;;6.20;5.07;;;;;;;20.47;66.54;101146.91;5045921;27;102190;-83
2021/09/17 02:19:42;;;;;;;8.30;5.63;;;;;;;20.47;66.50;101146.91;5049929;27;102440;-82
2021/09/17 02:22:10;;;;;;;7.07;5.80;;;;;;;20.47;66.55;101146.91;5047464;27;104284;-82
2021/09/17 02:24:38;;;;;;;7.03;5.25;;;;;;;20.47;66.52;101141.38;5043753;27;102725;-83
2021/09/17 02:27:05;;;;;;;6.90;5.40;;;;;;;20.47;66.60;101147.69;5036379;27;102419;-82
2021/09/17 02:29:33;;;;;;;6.38;4.90;;;;;;;20.47;66.65;101142.19;5049293;27;102304;-82
2021/09/17 02:31:59;;;;;;;8.40;5.55;;;;;;;20.47;66.53;101141.38;5048999;27;104125;-82
2021/09/17 02:34:26;;;;;;;7.70;5.25;;;;;;;20.47;66.50;101138.59;5050250;27;102063;-83
2021/09/17 02:36:52;;;;;;;5.60;4.90;;;;;;;20.46;66.37;101137.00;5045108;27;102606;-83
2021/09/17 02:39:19;;;;;;;6.18;4.35;;;;;;;20.46;66.45;101143.31;5045586;27;102353;-81
2021/09/17 02:41:46;;;;;;;7.47;4.90;;;;;;;20.46;66.50;101142.50;5040525;27;102766;-82
2021/09/17 02:44:14;;;;;;;5.87;4.73;;;;;;;20.46;66.35;101143.31;5042107;27;102200;-82
2021/09/17 02:46:42;;;;;;;6.88;4.82;;;;;;;20.46;66.55;101137.00;5037035;27;102274;-82
2021/09/17 02:49:09;;;;;;;6.20;4.85;;;;;;;20.46;66.55;101146.09;5040844;27;102251;-88
2021/09/17 02:51:36;;;;;;;6.50;5.22;;;;;;;20.46;66.62;101145.28;5027935;27;104043;-87
2021/09/17 02:54:03;;;;;;;6.32;5.00;;;;;;;20.46;66.61;101145.28;5024066;27;102651;-87
2021/09/17 02:56:33;;;;;;;8.88;5.38;;;;;;;20.45;66.64;101138.94;5027987;27;102352;-87
2021/09/17 02:59:00;;;;;;;6.45;4.78;;;;;;;20.45;66.53;101144.47;5029454;27;102119;-87
2021/09/17 03:01:26;;;;;;;6.45;4.85;;;;;;;20.45;66.43;101132.56;5011782;27;103893;-87
2021/09/17 03:03:54;;;;;;;7.03;5.20;;;;;;;20.45;66.47;101140.88;5027889;27;102226;-87
2021/09/17 03:06:22;;;;;;;7.60;5.20;;;;;;;20.45;66.58;101130.66;5025180;28;102143;-87
2021/09/17 03:08:49;;;;;;;5.73;5.00;;;;;;;20.45;66.64;101136.19;5023376;28;102333;-87
2021/09/17 03:11:17;;;;;;;5.20;4.18;;;;;;;20.45;66.54;101127.03;5022600;27;103940;-82
2021/09/17 03:13:48;;;;;;;6.20;4.93;;;;;;;20.45;66.51;101124.28;5019594;28;102173;-82
2021/09/17 03:16:14;;;;;;;6.00;4.97;;;;;;;20.45;66.48;101116.00;5022033;27;102746;-82
2021/09/17 03:18:41;;;;;;;6.55;5.07;;;;;;;20.44;66.67;101115.19;5028444;28;102656;-82
2021/09/17 03:21:11;;;;;;;7.00;5.07;;;;;;;20.45;66.65;101116.00;5028582;28;102745;-82
2021/09/17 03:23:38;;;;;;;7.72;5.75;;;;;;;20.45;66.46;101116.00;5022967;28;102656;-82
2021/09/17 03:26:05;;;;;;;7.57;5.70;;;;;;;20.44;66.45;101106.06;5016630;28;102150;-82
2021/09/17 03:28:31;;;;;;;7.15;5.55;;;;;;;20.45;66.58;101110.47;5028473;28;102267;-87
2021/09/17 03:30:58;;;;;;;5.53;4.95;;;;;;;20.45;66.48;101116.00;5028179;27;102711;-87
2021/09/17 03:33:28;;;;;;;8.52;5.15;;;;;;;20.45;66.53;101110.47;5017254;28;102604;-87
2021/09/17 03:35:54;;;;;;;6.65;5.15;;;;;;;20.44;66.49;101115.19;5031341;28;102267;-87
2021/09/17 03:38:22;;;;;;;7.55;5.35;;;;;;;20.43;66.40;101119.09;5030286;28;102261;-87
2021/09/17 03:40:50;;;;;;;7.40;5.38;;;;;;;20.45;66.62;101116.00;5029173;28;103238;-87
2021/09/17 03:43:17;;;;;;;7.55;5.30;;;;;;;20.43;66.65;101115.53;5018487;28;102499;-87
2021/09/17 03:45:43;;;;;;;6.35;5.30;;;;;;;20.45;66.73;101121.50;5018601;28;102392;-87
2021/09/17 03:48:12;;;;;;;7.57;5.22;;;;;;;20.43;66.56;101110.81;5029991;28;102752;-87
2021/09/17 03:50:39;;;;;;;;;;;;;;;20.44;66.70;101119.91;5029760;27;103921;-87
2021/09/17 03:53:06;;;;;;;7.28;5.13;;;;;;;20.44;66.62;101115.19;5026562;28;102379;-87
2021/09/17 03:55:39;;;;;;;6.85;5.47;;;;;;;20.45;66.62;101116.00;4995869;28;102295;-87
2021/09/17 03:58:05;;;;;;;7.53;5.65;;;;;;;20.43;66.64;101105.28;5030770;28;102401;-87
2021/09/17 04:00:33;;;;;;;8.80;5.78;;;;;;;20.44;66.66;101106.06;5028176;28;103835;-87
2021/09/17 04:02:59;;;;;;;9.45;6.97;;;;;;;20.43;66.61;101113.56;5029024;28;102395;-87
2021/09/17 04:05:27;;;;;;;9.43;7.05;;;;;;;20.45;66.76;101113.22;5028820;27;102365;-82
2021/09/17 04:07:54;;;;;;;9.38;7.35;;;;;;;20.44;66.63;101111.59;5030457;28;102647;-82
2021/09/17 04:10:21;;;;;;;8.52;6.90;;;;;;;20.44;66.77;101106.06;5020886;28;102819;-82
2021/09/17 04:12:49;;;;;;;8.48;6.43;;;;;;;20.44;66.81;101106.06;5042580;27;102103;-82
2021/09/17 04:15:16;;;;;;;;;;;;;;;20.45;66.90;101110.47;5040078;27;102158;-82
2021/09/17 04:17:43;;;;;;;92.15;11.88;;;;;;;20.43;66.88;101101.69;5040950;27;102175;-82
2021/09/17 04:20:11;;;;;;;10.13;7.25;;;;;;;20.43;66.98;101102.50;5048694;27;103326;-81
2021/09/17 04:22:38;;;;;;;10.15;7.05;;;;;;;20.44;66.63;101097.78;5048300;27;102734;-82
2021/09/17 04:25:10;;;;;;;10.75;7.30;;;;;;;20.44;66.94;101098.59;5036624;27;102519;-82
2021/09/17 04:27:44;;;;;;;8.55;6.43;;;;;;;20.43;66.80;101091.44;5037878;27;102684;-87
2021/09/17 04:30:14;;;;;;;13.45;7.63;;;;;;;20.42;66.83;101098.13;5037262;27;103824;-87
2021/09/17 04:32:41;;;;;;;12.30;7.63;;;;;;;20.43;66.69;101096.97;5036081;27;102259;-87
2021/09/17 04:35:08;;;;;;;12.63;7.45;;;;;;;20.45;66.94;101104.94;5046180;27;102819;-86
2021/09/17 04:37:39;;;;;;;8.95;6.53;;;;;;;20.44;67.11;101092.25;5047255;27;102369;-87
2021/09/17 04:40:07;;;;;;;9.20;6.40;;;;;;;20.44;66.81;101089.50;5051970;27;103919;-87
2021/09/17 04:42:33;;;;;;;18.73;10.38;;;;;;;20.44;67.08;101092.25;5040831;27;102048;-87
2021/09/17 04:45:00;;;;;;;12.27;7.78;;;;;;;20.44;66.83;101092.25;5041444;27;102566;-87
2021/09/17 04:47:28;;;;;;;16.95;8.23;;;;;;;20.43;66.83;101080.38;5039843;27;102276;-87
2021/09/17 04:50:09;;;;;;;24.90;12.38;;;;;;;20.43;67.22;101083.16;5038560;27;104097;-87
2021/09/17 04:52:35;;;;;;;25.88;12.00;;;;;;;20.43;66.78;101080.38;5034392;27;102481;-88
2021/09/17 04:55:03;;;;;;;21.13;10.95;;;;;;;20.44;66.69;101086.72;5042156;27;102274;-88
2021/09/17 04:57:30;;;;;;;19.67;10.95;;;;;;;20.44;67.05;101083.97;5045199;27;102503;-87
2021/09/17 04:59:57;;;;;;;19.48;10.27;;;;;;;20.42;66.98;101095.38;5038794;27;103869;-87
2021/09/17 05:02:24;;;;;;;18.10;9.35;;;;;;;20.43;66.90;101080.38;5012927;27;102215;-86
2021/09/17 05:04:53;;;;;;;15.55;9.07;;;;;;;20.44;67.01;101095.03;5014879;28;103458;-82
2021/09/17 05:07:21;;;;;;;11.43;7.70;;;;;;;20.43;66.92;101090.66;5043983;27;102528;-82
2021/09/17 05:09:47;;;;;;;14.20;7.43;;;;;;;20.43;66.83;101096.97;5017147;27;103901;-82
2021/09/17 05:12:19;;;;;;;12.98;7.70;;;;;;;20.44;66.85;101097.78;5023910;28;102321;-82
2021/09/17 05:14:46;;;;;;;14.15;7.80;;;;;;;20.44;67.00;101097.78;5035946;27;102329;-82
2021/09/17 05:17:12;;;;;;;12.60;7.28;;;;;;;20.45;67.00;101097.47;5039824;27;102358;-82
2021/09/17 05:19:40;;;;;;;12.40;7.13;;;;;;;20.44;67.01;101092.25;5031456;27;104272;-82
2021/09/17 05:22:13;;;;;;;10.68;6.90;;;;;;;20.44;66.80;101092.25;5040933;27;102395;-87
2021/09/17 05:24:40;;;;;;;10.40;6.80;;;;;;;20.44;67.03;101097.78;5045536;27;102664;-87
2021/09/17 05:27:12;;;;;;;10.35;6.10;;;;;;;20.44;66.77;101097.78;5035264;27;102314;-87
2021/09/17 05:29:39;;;;;;;15.77;7.10;;;;;;;20.44;66.95;101093.06;5039378;27;103202;-87
2021/09/17 05:32:09;;;;;;;12.23;7.40;;;;;;;20.45;66.96;101094.72;5034957;27;102669;-87
2021/09/17 05:34:35;;;;;;;12.25;7.25;;;;;;;20.46;67.15;101078.94;5031492;27;102123;-87
2021/09/17 05:37:03;;;;;;;10.30;6.55;;;;;;;20.45;66.58;101078.13;5034152;27;102233;-87
2021/09/17 05:39:34;;;;;;;13.00;7.80;;;;;;;20.47;66.85;101080.53;5045860;27;103988;-87
2021/09/17 05:42:01;;;;;;;10.95;7.28;;;;;;;20.47;66.79;101086.88;5032234;27;102442;-87
2021/09/17 05:44:28;;;;;;;10.48;6.40;;;;;;;20.47;66.68;101075.00;5032102;27;102486;-87
2021/09/17 05:46:56;;;;;;;8.77;6.47;;;;;;;20.49;66.51;101079.09;5042411;27;102553;-87
2021/09/17 05:49:24;;;;;;;10.32;6.22;;;;;;;20.50;66.50;101088.22;5032800;27;103886;-87
2021/09/17 05:51:51;;;;;;;11.27;6.35;;;;;;;20.50;66.67;101079.91;5031751;27;102198;-87
2021/09/17 05:54:19;;;;;;;9.60;5.90;;;;;;;20.51;66.47;101084.31;5030787;27;102153;-87
2021/09/17 05:56:47;;;;;;;11.73;6.57;;;;;;;20.51;66.48;101081.53;5046997;27;102898;-87
2021/09/17 05:59:13;;;;;;;13.53;5.67;;;;;;;20.52;66.54;101084.00;5036602;27;102532;-87
2021/09/17 06:01:40;;;;;;;8.73;6.00;;;;;;;20.53;66.52;101082.03;5037028;27;102418;-83
2021/09/17 06:04:07;;;;;;;7.90;5.93;;;;;;;20.53;66.72;101079.28;5026430;27;102353;-82
2021/09/17 06:06:34;;;;;;;12.00;5.57;;;;;;;20.53;66.63;101079.28;5049170;27;102355;-83
2021/09/17 06:09:08;;;;;;;9.32;5.57;;;;;;;20.54;66.54;101069.81;5032601;27;102763;-82
2021/09/17 06:11:47;;;;;;;8.20;5.43;;;;;;;20.55;66.39;101074.19;5041210;27;102436;-82
2021/09/17 06:14:17;;;;;;;11.40;5.53;;;;;;;20.55;66.39;101076.97;5033521;27;102620;-82
2021/09/17 06:16:44;;;;;;;7.88;4.88;;;;;;;20.56;66.48;101075.84;5046393;27;102434;-82
2021/09/17 06:19:12;;;;;;;6.75;4.30;;;;;;;20.56;66.54;101067.56;5049185;27;102846;-81
2021/09/17 06:21:40;;;;;;;5.60;4.47;;;;;;;20.56;66.28;101073.09;5032182;27;102442;-82
2021/09/17 06:24:07;;;;;;;7.78;4.25;;;;;;;20.57;66.39;101069.16;5038170;27;102553;-82
2021/09/17 06:26:34;;;;;;;5.80;4.25;;;;;;;20.56;66.19;101060.06;5038517;27;102422;-82
2021/09/17 06:29:06;;;;;;;7.00;4.25;;;;;;;20.57;66.13;101066.41;5019893;27;102749;-82
2021/09/17 06:31:34;;;;;;;5.13;3.70;;;;;;;20.57;66.08;101058.91;5040626;27;102167;-82
2021/09/17 06:34:00;;;;;;;4.72;4.22;;;;;;;20.57;66.17;101069.16;5033368;27;102294;-81
2021/09/17 06:36:28;;;;;;;4.22;3.30;;;;;;;20.57;66.06;101063.63;5040927;27;102493;-88
2021/09/17 06:38:55;;;;;;;5.63;3.13;;;;;;;20.59;66.35;101067.69;5016640;27;103095;-83
2021/09/17 06:41:22;;;;;;;5.68;3.65;;;;;;;20.58;66.06;101060.53;5038098;27;102414;-81
2021/09/17 06:43:49;;;;;;;5.70;3.38;;;;;;;20.58;66.14;101059.72;5042743;27;102529;-82
2021/09/17 06:46:17;;;;;;;5.00;3.63;;;;;;;20.59;65.92;101067.69;5017972;27;102377;-82
2021/09/17 06:48:45;;;;;;;4.85;3.30;;;;;;;20.60;65.84;101060.22;5007944;28;105200;-82
2021/09/17 06:51:12;;;;;;;3.75;3.38;;;;;;;20.60;65.85;101057.44;5031688;27;102069;-82
2021/09/17 06:53:38;;;;;;;5.28;3.97;;;;;;;20.59;65.95;101056.66;5043453;27;102214;-82
2021/09/17 06:56:05;;;;;;;6.13;3.63;;;;;;;20.61;65.91;101056.28;5034018;27;102249;-82
2021/09/17 06:58:32;;;;;;;4.15;2.88;;;;;;;20.61;65.55;101050.78;5023675;27;102770;-88
2021/09/17 07:00:59;;;;;;;8.82;3.78;;;;;;;20.61;65.53;101053.53;5046828;27;103152;-87
2021/09/17 07:03:27;;;;;;;3.58;3.03;;;;;;;20.61;65.52;101054.34;5013925;27;102168;-88
2021/09/17 07:05:55;;;;;;;3.78;3.38;;;;;;;20.62;65.75;101053.19;5034230;27;102314;-88
2021/09/17 07:08:22;;;;;;;3.93;3.27;;;;;;;20.62;65.49;101061.50;5016283;27;103847;-88
2021/09/17 07:10:49;;;;;;;8.40;3.47;;;;;;;20.62;65.50;101055.97;5016479;27;102571;-89
2021/09/17 07:13:20;;;;;;;4.47;2.90;;;;;;;20.64;65.35;101055.63;5021287;28;102974;-89
2021/09/17 07:15:46;;;;;;;8.07;3.10;;;;;;;20.63;65.30;101054.84;5036972;27;102607;-89
2021/09/17 07:18:13;;;;;;;5.90;4.13;;;;;;;20.64;65.30;101052.88;5040764;27;103903;-88
2021/09/17 07:20:41;;;;;;;4.55;3.45;;;;;;;20.64;65.00;101066.69;5036503;27;101988;-89
2021/09/17 07:23:10;;;;;;;8.10;3.63;;;;;;;20.65;65.29;101060.03;5043996;27;102173;-88
2021/09/17 07:25:39;;;;;;;6.20;3.30;;;;;;;20.65;65.29;101054.50;5038157;27;102857;-89
2021/09/17 07:28:05;;;;;;;5.95;3.25;;;;;;;20.65;65.11;101054.50;5046216;27;102862;-88
2021/09/17 07:30:32;;;;;;;6.00;3.55;;;;;;;20.66;65.08;101050.56;5023233;27;102771;-88
2021/09/17 07:33:00;;;;;;;5.15;3.65;;;;;;;20.66;65.09;101047.81;5037827;27;102075;-89
2021/09/17 07:35:29;;;;;;;9.73;4.65;;;;;;;20.67;64.97;101057.75;5042320;27;102401;-82
2021/09/17 07:37:58;;;;;;;10.60;4.05;;;;;;;20.67;65.07;101046.69;5032003;27;102746;-88
2021/09/17 07:40:26;;;;;;;6.88;4.00;;;;;;;20.68;64.91;101048.31;5045299;27;102614;-89
2021/09/17 07:42:52;;;;;;;5.80;3.33;;;;;;;20.69;64.88;101033.31;5050282;27;102472;-88
2021/09/17 07:45:24;;;;;;;4.88;3.25;;;;;;;20.70;64.96;101034.97;5039956;27;102816;-89
2021/09/17 07:47:51;;;;;;;7.32;3.65;;;;;;;20.70;64.83;101034.13;5036840;27;103950;-89
2021/09/17 07:50:18;;;;;;;5.40;3.28;;;;;;;20.70;64.69;101023.91;5038778;27;102048;-89
2021/09/17 07:52:45;;;;;;;8.75;4.32;;;;;;;20.71;64.49;101035.78;5033189;27;102103;-89
2021/09/17 07:55:15;;;;;;;5.82;3.30;;;;;;;20.71;64.39;101022.75;5035243;27;102211;-89
2021/09/17 07:57:42;;;;;;;5.05;3.20;;;;;;;20.71;64.52;101022.75;5005639;27;105115;-88
2021/09/17 08:00:11;;;;;;;10.20;3.67;;;;;;;20.72;64.29;101029.91;5032787;27;102227;-88
2021/09/17 08:02:38;;;;;;;8.10;3.65;;;;;;;20.74;64.28;101022.09;5037168;27;102333;-88
2021/09/17 08:05:05;;;;;;;4.40;3.15;;;;;;;20.74;64.43;101019.31;5019738;27;102665;-89
2021/09/17 08:07:32;;;;;;;5.97;3.22;;;;;;;20.73;64.42;101017.69;5044282;27;102826;-89
2021/09/17 08:09:59;;;;;;;6.80;3.30;;;;;;;20.74;64.17;101024.84;5033303;27;102383;-88
2021/09/17 08:12:32;;;;;;;5.07;3.08;;;;;;;20.75;64.23;101023.72;5028801;27;102503;-88
2021/09/17 08:14:59;;;;;;;;;;;;;;;20.75;64.02;101022.91;5051098;27;102146;-88
2021/09/17 08:17:26;;;;;;;5.32;3.47;;;;;;;20.76;64.14;101017.03;5046115;27;102710;-88
2021/09/17 08:19:53;;;;;;;5.85;3.28;;;;;;;20.77;63.97;101018.66;5030751;27;102289;-88
2021/09/17 08:22:19;;;;;;;6.57;3.97;;;;;;;20.77;64.37;101017.81;5042784;27;102143;-88
2021/09/17 08:24:46;;;;;;;4.68;3.50;;;;;;;20.78;64.11;101014.75;5018971;27;102740;-88
2021/09/17 08:27:12;;;;;;;4.60;3.10;;;;;;;20.78;64.04;101008.41;5046373;27;102726;-89
2021/09/17 08:29:40;;;;;;;3.75;2.83;;;;;;;20.78;63.77;101009.22;5045160;27;102279;-89
2021/09/17 08:32:07;;;;;;;5.70;3.70;;;;;;;20.80;63.91;101008.88;5040003;27;102254;-89
2021/09/17 08:34:35;;;;;;;5.93;3.60;;;;;;;20.80;63.97;101006.91;5041887;27;102277;-81
2021/09/17 08:37:07;;;;;;;7.45;3.55;;;;;;;20.80;63.83;101006.91;5033183;27;103919;-82
2021/09/17 08:39:36;;;;;;;7.20;3.50;;;;;;;20.80;63.58;100993.06;5044095;27;102098;-82
2021/09/17 08:42:05;;;;;;;4.45;3.17;;;;;;;20.82;63.77;100999.09;5044274;27;102305;-82
2021/09/17 08:44:32;;;;;;;4.28;3.17;;;;;;;20.83;63.70;101000.72;5038240;27;102444;-82
2021/09/17 08:47:01;;;;;;;5.63;3.03;;;;;;;20.83;63.76;101003.47;5042390;27;102779;-81
2021/09/17 08:49:29;;;;;;;5.05;3.40;;;;;;;20.83;63.82;100995.19;5049531;27;103631;-81
2021/09/17 08:51:56;;;;;;;5.18;3.08;;;;;;;20.83;63.52;100997.94;5040504;27;102249;-82
2021/09/17 08:54:23;;;;;;;5.82;3.28;;;;;;;20.84;63.24;100990.47;5043300;27;102126;-88
2021/09/17 08:56:49;;;;;;;5.45;3.47;;;;;;;20.84;63.42;100985.75;5049042;27;102721;-88
2021/09/17 08:59:17;;;;;;;6.20;3.20;;;;;;;20.85;63.27;100989.34;5050529;27;102280;-88
2021/09/17 09:01:43;;;;;;;6.03;3.28;;;;;;;20.85;63.73;100987.38;5036479;27;102396;-89
2021/09/17 09:04:13;;;;;;;7.22;3.20;;;;;;;20.86;63.35;100988.19;5044126;27;102247;-88
2021/09/17 09:06:46;;;;;;;4.43;3.17;;;;;;;20.86;63.42;100980.69;5017605;28;102859;-89
2021/09/17 09:09:17;;;;;;;4.43;3.40;;;;;;;20.86;63.25;100985.41;5041093;27;102666;-88
2021/09/17 09:11:46;;;;;;;4.78;2.85;;;;;;;20.87;63.28;100985.06;5027397;27;102556;-82
2021/09/17 09:14:15;;;;;;;6.50;3.10;;;;;;;20.87;63.29;100987.84;5032559;27;102720;-82
2021/09/17 09:16:43;;;;;;;6.45;4.35;;;;;;;20.86;63.33;100977.91;5038880;27;102907;-82
2021/09/17 09:19:25;;;;;;;7.63;4.43;;;;;;;20.88;63.26;100974.84;5045147;27;102958;-82
2021/09/17 09:21:54;;;;;;;8.90;5.80;;;;;;;20.88;63.30;100975.66;5020124;27;102321;-82
2021/09/17 09:24:23;;;;;;;10.55;4.07;;;;;;;20.88;63.26;100967.34;5028489;27;102945;-82
2021/09/17 09:27:08;;;;;;;5.43;3.10;;;;;;;20.90;63.18;100977.25;5039066;27;102843;-82
2021/09/17 09:29:36;;;;;;;5.47;3.42;;;;;;;20.88;63.23;100964.56;5049288;27;102735;-88
2021/09/17 09:32:04;;;;;;;8.05;3.90;;;;;;;20.92;63.25;100961.16;5045521;27;102433;-89
2021/09/17 09:34:51;;;;;;;5.13;3.40;;;;;;;20.90;63.11;100955.13;5029520;27;102344;-89
2021/09/17 09:37:18;;;;;;;7.45;3.53;;;;;;;20.91;63.47;100957.53;5034985;27;102742;-88
2021/09/17 09:39:54;;;;;;;6.17;3.70;;;;;;;20.92;63.04;100952.84;5020592;27;102882;-89
2021/09/17 09:42:28;;;;;;;8.68;3.22;;;;;;;20.92;63.11;100955.63;5048539;27;102417;-88
2021/09/17 09:45:14;;;;;;;5.95;3.20;;;;;;;20.91;62.97;100956.72;5047713;27;102528;-87
2021/09/17 09:47:42;;;;;;;5.63;3.22;;;;;;;20.92;63.29;100948.13;5038360;27;102467;-88
2021/09/17 09:50:12;;;;;;;5.10;3.80;;;;;;;20.94;63.26;100950.53;5043563;27;102755;-82
2021/09/17 09:52:39;;;;;;;5.90;4.38;;;;;;;20.93;63.15;100960.81;5047142;27;102262;-82
2021/09/17 09:55:08;;;;;;;5.70;3.70;;;;;;;20.92;63.33;100944.53;5034513;27;102039;-82
2021/09/17 09:57:35;;;;;;;4.82;3.70;;;;;;;20.93;63.31;100940.63;5031678;27;102579;-82
2021/09/17 10:00:08;;;;;;;6.00;3.83;;;;;;;20.93;63.31;100937.84;5037421;27;102054;-82
2021/09/17 10:02:36;;;;;;;4.72;2.95;;;;;;;20.94;63.34;100936.72;5036796;27;102493;-82
2021/09/17 10:05:04;;;;;;;7.13;3.00;;;;;;;20.94;63.42;100939.47;5017323;28;102300;-82
2021/09/17 10:07:33;;;;;;;8.40;3.50;;;;;;;20.93;63.01;100940.63;5036121;27;102695;-83
2021/09/17 10:10:01;;;;;;;7.97;3.40;;;;;;;20.94;63.43;100950.53;5041751;27;102116;-82
2021/09/17 10:12:28;;;;;;;7.95;3.47;;;;;;;20.94;63.26;100945.81;5051265;27;102197;-82
2021/09/17 10:14:57;;;;;;;3.88;3.47;;;;;;;20.94;63.31;100951.34;5032285;27;102254;-82
2021/09/17 10:17:28;;;;;;;4.32;3.20;;;;;;;20.96;63.56;100931.66;5047209;27;103387;-82
2021/09/17 10:19:57;;;;;;;7.80;3.78;;;;;;;20.95;63.18;100925.28;5051664;27;102214;-81
2021/09/17 10:22:33;;;;;;;;;;;;;;;20.96;63.18;100939.97;5031980;27;102630;-82
2021/09/17 10:25:22;;;;;;;6.90;3.70;;;;;;;20.95;63.08;100941.88;5043869;27;102750;-82
2021/09/17 10:28:02;;;;;;;4.85;3.38;;;;;;;20.96;63.01;100931.66;5050195;27;104035;-89
2021/09/17 10:30:31;;;;;;;3.75;3.35;;;;;;;20.95;63.29;100930.00;5045779;27;102668;-82
2021/09/17 10:32:59;;;;;;;6.05;3.38;;;;;;;20.96;63.43;100926.13;5047303;27;102298;-82
2021/09/17 10:35:29;;;;;;;5.72;3.75;;;;;;;20.95;63.47;100919.75;5035534;27;102278;-82
2021/09/17 10:38:06;;;;;;;6.43;3.40;;;;;;;20.97;63.37;100922.22;5046820;27;102914;-82
2021/09/17 10:40:40;;;;;;;5.40;3.20;;;;;;;20.96;63.54;100909.53;5024941;27;102483;-81
2021/09/17 10:43:27;;;;;;;6.93;3.70;;;;;;;20.96;63.50;100920.59;5044440;27;102292;-49
2021/09/17 10:46:29;;;;;;;6.50;3.47;;;;;;;20.96;63.50;100906.75;5040234;27;102231;-49
2021/09/17 10:49:09;;;;;;;3.38;2.97;;;;;;;20.96;63.58;100904.78;5046701;27;102967;-49
2021/09/17 10:51:49;;;;;;;6.05;3.22;;;;;;;20.98;63.53;100912.75;5072683;27;103232;-48
2021/09/17 10:54:35;;;;;;;6.07;3.05;;;;;;;20.97;63.58;100905.59;5040085;27;102625;-50
2021/09/17 10:57:16;;;;;;;5.82;3.13;;;;;;;20.96;63.74;100888.19;5088839;27;105427;-49
2021/09/17 10:59:46;;;;;;;;;;;;;;;20.97;63.55;100889.00;5057806;27;102613;-50
2021/09/17 11:02:14;;;;;;;3.13;2.83;;;;;;;20.96;63.73;100881.84;5045164;27;103954;-50
2021/09/17 11:04:45;;;;;;;3.80;2.63;;;;;;;20.96;63.67;100877.13;5045242;27;102448;-50
2021/09/17 11:07:32;;;;;;;;;;;;;;;20.97;63.53;100877.94;5031650;27;102384;-50
2021/09/17 11:09:59;;;;;;;6.68;3.10;;;;;;;20.96;63.76;100879.09;5039452;27;102236;-50
2021/09/17 11:12:30;;;;;;;4.38;3.05;;;;;;;20.96;63.84;100871.59;5041812;27;103953;-49
2021/09/17 11:15:08;;;;;;;3.85;2.92;;;;;;;20.97;63.76;100872.41;5045284;27;102190;-50
2021/09/17 11:17:37;;;;;;;3.70;3.03;;;;;;;20.97;63.93;100872.41;5034418;27;102049;-50
2021/09/17 11:20:05;;;;;;;6.75;2.95;;;;;;;20.97;63.94;100861.34;5054664;27;102677;-49
2021/09/17 11:22:50;;;;;;;3.22;2.92;;;;;;;20.96;63.89;100871.59;5043357;27;103897;-50
2021/09/17 11:25:20;;;;;;;5.07;3.28;;;;;;;20.96;63.92;100860.53;5063047;27;102410;-49